sensor_id;sensor_type;location;lat;lon;timestamp;P1;durP1;ratioP1;P2;durP2;ratioP2
39102;SDS011;24847;48.218;16.414;2024-02-26T00:00:57;2.80;;;1.58;;
39102;SDS011;24847;48.218;16.414;2024-02-26T00:05:59;2.20;;;1.65;;
39102;SDS011;24847;48.218;16.414;2024-02-26T00:11:03;3.88;;;1.85;;
39102;SDS011;24847;48.218;16.414;2024-02-26T00:16:05;3.15;;;1.90;;
39102;SDS011;24847;48.218;16.414;2024-02-26T00:21:08;2.22;;;1.77;;
39102;SDS011;24847;48.218;16.414;2024-02-26T00:26:11;4.22;;;1.65;;
39102;SDS011;24847;48.218;16.414;2024-02-26T00:31:15;2.15;;;1.63;;
39102;SDS011;24847;48.218;16.414;2024-02-26T00:36:18;2.60;;;1.63;;
39102;SDS011;24847;48.218;16.414;2024-02-26T00:41:21;4.72;;;1.77;;
39102;SDS011;24847;48.218;16.414;2024-02-26T00:46:23;2.35;;;1.90;;
39102;SDS011;24847;48.218;16.414;2024-02-26T00:51:25;3.15;;;2.05;;
39102;SDS011;24847;48.218;16.414;2024-02-26T00:56:29;2.67;;;2.03;;
39102;SDS011;24847;48.218;16.414;2024-02-26T01:01:31;2.55;;;2.08;;
39102;SDS011;24847;48.218;16.414;2024-02-26T01:06:33;3.42;;;2.42;;
39102;SDS011;24847;48.218;16.414;2024-02-26T01:11:37;3.90;;;2.00;;
39102;SDS011;24847;48.218;16.414;2024-02-26T01:16:40;6.80;;;2.80;;
39102;SDS011;24847;48.218;16.414;2024-02-26T01:21:42;3.58;;;2.50;;
39102;SDS011;24847;48.218;16.414;2024-02-26T01:26:45;4.15;;;2.83;;
39102;SDS011;24847;48.218;16.414;2024-02-26T01:31:47;4.60;;;2.85;;
39102;SDS011;24847;48.218;16.414;2024-02-26T01:36:49;4.32;;;3.00;;
39102;SDS011;24847;48.218;16.414;2024-02-26T01:41:53;2.90;;;2.55;;
39102;SDS011;24847;48.218;16.414;2024-02-26T01:46:55;3.20;;;2.42;;
39102;SDS011;24847;48.218;16.414;2024-02-26T01:51:58;3.83;;;2.55;;
39102;SDS011;24847;48.218;16.414;2024-02-26T01:57:02;3.63;;;2.75;;
39102;SDS011;24847;48.218;16.414;2024-02-26T02:02:07;3.03;;;2.42;;
39102;SDS011;24847;48.218;16.414;2024-02-26T02:07:11;4.35;;;2.80;;
39102;SDS011;24847;48.218;16.414;2024-02-26T02:12:15;3.80;;;2.50;;
39102;SDS011;24847;48.218;16.414;2024-02-26T02:17:18;3.83;;;2.67;;
39102;SDS011;24847;48.218;16.414;2024-02-26T02:22:22;4.50;;;2.40;;
39102;SDS011;24847;48.218;16.414;2024-02-26T02:27:24;4.60;;;2.60;;
39102;SDS011;24847;48.218;16.414;2024-02-26T02:32:27;3.72;;;2.40;;
39102;SDS011;24847;48.218;16.414;2024-02-26T02:37:31;3.47;;;2.05;;
39102;SDS011;24847;48.218;16.414;2024-02-26T02:42:33;3.65;;;2.25;;
39102;SDS011;24847;48.218;16.414;2024-02-26T02:47:36;3.35;;;1.88;;
39102;SDS011;24847;48.218;16.414;2024-02-26T02:52:40;2.75;;;1.92;;
39102;SDS011;24847;48.218;16.414;2024-02-26T02:57:42;2.80;;;2.00;;
39102;SDS011;24847;48.218;16.414;2024-02-26T03:02:45;3.13;;;2.00;;
39102;SDS011;24847;48.218;16.414;2024-02-26T03:07:48;2.33;;;1.77;;
39102;SDS011;24847;48.218;16.414;2024-02-26T03:12:50;3.53;;;2.08;;
39102;SDS011;24847;48.218;16.414;2024-02-26T03:17:53;3.17;;;1.80;;
39102;SDS011;24847;48.218;16.414;2024-02-26T03:22:56;2.63;;;1.77;;
39102;SDS011;24847;48.218;16.414;2024-02-26T03:27:59;2.38;;;1.70;;
39102;SDS011;24847;48.218;16.414;2024-02-26T03:33:01;2.63;;;1.70;;
39102;SDS011;24847;48.218;16.414;2024-02-26T03:38:05;3.17;;;1.77;;
39102;SDS011;24847;48.218;16.414;2024-02-26T03:43:07;2.85;;;1.80;;
39102;SDS011;24847;48.218;16.414;2024-02-26T03:48:09;1.67;;;1.55;;
39102;SDS011;24847;48.218;16.414;2024-02-26T03:53:13;5.10;;;2.22;;
39102;SDS011;24847;48.218;16.414;2024-02-26T03:58:15;2.90;;;1.75;;
39102;SDS011;24847;48.218;16.414;2024-02-26T04:03:17;2.95;;;2.00;;
39102;SDS011;24847;48.218;16.414;2024-02-26T04:08:20;4.43;;;1.85;;
39102;SDS011;24847;48.218;16.414;2024-02-26T04:13:23;3.45;;;2.03;;
39102;SDS011;24847;48.218;16.414;2024-02-26T04:18:25;2.85;;;2.38;;
39102;SDS011;24847;48.218;16.414;2024-02-26T04:23:28;10.00;;;6.00;;
39102;SDS011;24847;48.218;16.414;2024-02-26T04:28:30;6.72;;;3.42;;
39102;SDS011;24847;48.218;16.414;2024-02-26T04:33:33;5.63;;;3.75;;
39102;SDS011;24847;48.218;16.414;2024-02-26T04:38:37;4.30;;;3.10;;
39102;SDS011;24847;48.218;16.414;2024-02-26T04:43:39;3.40;;;2.80;;
39102;SDS011;24847;48.218;16.414;2024-02-26T04:48:42;3.85;;;2.88;;
39102;SDS011;24847;48.218;16.414;2024-02-26T04:53:48;3.67;;;3.05;;
39102;SDS011;24847;48.218;16.414;2024-02-26T04:58:50;4.03;;;3.13;;
39102;SDS011;24847;48.218;16.414;2024-02-26T05:03:52;3.60;;;2.90;;
39102;SDS011;24847;48.218;16.414;2024-02-26T05:08:56;5.18;;;3.17;;
39102;SDS011;24847;48.218;16.414;2024-02-26T05:13:58;4.90;;;3.47;;
39102;SDS011;24847;48.218;16.414;2024-02-26T05:19:01;4.13;;;3.22;;
39102;SDS011;24847;48.218;16.414;2024-02-26T05:24:05;4.50;;;3.22;;
39102;SDS011;24847;48.218;16.414;2024-02-26T05:29:08;2.97;;;2.67;;
39102;SDS011;24847;48.218;16.414;2024-02-26T05:34:10;3.95;;;3.05;;
39102;SDS011;24847;48.218;16.414;2024-02-26T05:39:13;3.65;;;3.08;;
39102;SDS011;24847;48.218;16.414;2024-02-26T05:44:16;6.55;;;3.35;;
39102;SDS011;24847;48.218;16.414;2024-02-26T05:49:18;3.42;;;2.85;;
39102;SDS011;24847;48.218;16.414;2024-02-26T05:54:23;4.13;;;2.72;;
39102;SDS011;24847;48.218;16.414;2024-02-26T05:59:25;4.72;;;3.28;;
39102;SDS011;24847;48.218;16.414;2024-02-26T06:04:27;4.13;;;3.20;;
39102;SDS011;24847;48.218;16.414;2024-02-26T06:09:31;5.30;;;3.08;;
39102;SDS011;24847;48.218;16.414;2024-02-26T06:14:33;2.90;;;2.60;;
39102;SDS011;24847;48.218;16.414;2024-02-26T06:19:36;5.05;;;2.60;;
39102;SDS011;24847;48.218;16.414;2024-02-26T06:24:39;4.13;;;2.78;;
39102;SDS011;24847;48.218;16.414;2024-02-26T06:29:41;3.50;;;2.92;;
39102;SDS011;24847;48.218;16.414;2024-02-26T06:34:44;4.43;;;2.75;;
39102;SDS011;24847;48.218;16.414;2024-02-26T06:39:47;5.20;;;2.75;;
39102;SDS011;24847;48.218;16.414;2024-02-26T06:44:49;4.30;;;3.28;;
39102;SDS011;24847;48.218;16.414;2024-02-26T06:49:51;5.20;;;3.35;;
39102;SDS011;24847;48.218;16.414;2024-02-26T06:54:56;4.78;;;3.50;;
39102;SDS011;24847;48.218;16.414;2024-02-26T06:59:58;5.30;;;3.88;;
39102;SDS011;24847;48.218;16.414;2024-02-26T07:05:00;7.45;;;4.32;;
39102;SDS011;24847;48.218;16.414;2024-02-26T07:10:05;5.93;;;3.95;;
39102;SDS011;24847;48.218;16.414;2024-02-26T07:15:08;4.32;;;3.53;;
39102;SDS011;24847;48.218;16.414;2024-02-26T07:20:11;4.03;;;2.90;;
39102;SDS011;24847;48.218;16.414;2024-02-26T07:25:15;3.17;;;2.70;;
39102;SDS011;24847;48.218;16.414;2024-02-26T07:30:18;4.10;;;2.75;;
39102;SDS011;24847;48.218;16.414;2024-02-26T07:35:20;5.38;;;3.38;;
39102;SDS011;24847;48.218;16.414;2024-02-26T07:40:23;6.25;;;3.30;;
39102;SDS011;24847;48.218;16.414;2024-02-26T07:45:25;5.25;;;3.97;;
39102;SDS011;24847;48.218;16.414;2024-02-26T07:50:27;5.88;;;4.07;;
39102;SDS011;24847;48.218;16.414;2024-02-26T07:55:31;6.18;;;3.92;;
39102;SDS011;24847;48.218;16.414;2024-02-26T08:00:33;6.03;;;4.38;;
39102;SDS011;24847;48.218;16.414;2024-02-26T08:05:35;5.50;;;4.35;;
39102;SDS011;24847;48.218;16.414;2024-02-26T08:10:41;5.05;;;4.38;;
39102;SDS011;24847;48.218;16.414;2024-02-26T08:15:43;6.68;;;5.63;;
39102;SDS011;24847;48.218;16.414;2024-02-26T08:20:45;5.38;;;4.22;;
39102;SDS011;24847;48.218;16.414;2024-02-26T08:25:50;4.97;;;3.90;;
39102;SDS011;24847;48.218;16.414;2024-02-26T08:30:52;5.38;;;4.65;;
39102;SDS011;24847;48.218;16.414;2024-02-26T08:35:54;4.65;;;3.88;;
39102;SDS011;24847;48.218;16.414;2024-02-26T08:40:58;5.75;;;3.60;;
39102;SDS011;24847;48.218;16.414;2024-02-26T08:46:00;4.32;;;3.50;;
39102;SDS011;24847;48.218;16.414;2024-02-26T08:51:04;6.63;;;4.00;;
39102;SDS011;24847;48.218;16.414;2024-02-26T08:56:09;6.50;;;3.33;;
39102;SDS011;24847;48.218;16.414;2024-02-26T09:01:16;3.60;;;3.05;;
39102;SDS011;24847;48.218;16.414;2024-02-26T09:06:19;3.95;;;2.90;;
39102;SDS011;24847;48.218;16.414;2024-02-26T09:11:22;3.53;;;2.70;;
39102;SDS011;24847;48.218;16.414;2024-02-26T09:16:24;4.40;;;2.70;;
39102;SDS011;24847;48.218;16.414;2024-02-26T09:21:26;3.80;;;2.60;;
39102;SDS011;24847;48.218;16.414;2024-02-26T09:26:30;2.90;;;2.33;;
39102;SDS011;24847;48.218;16.414;2024-02-26T09:31:32;2.55;;;2.03;;
39102;SDS011;24847;48.218;16.414;2024-02-26T09:36:35;3.47;;;2.47;;
39102;SDS011;24847;48.218;16.414;2024-02-26T09:41:38;2.80;;;2.00;;
39102;SDS011;24847;48.218;16.414;2024-02-26T09:46:40;2.92;;;2.05;;
39102;SDS011;24847;48.218;16.414;2024-02-26T09:51:43;2.55;;;1.90;;
39102;SDS011;24847;48.218;16.414;2024-02-26T09:56:47;3.38;;;2.20;;
39102;SDS011;24847;48.218;16.414;2024-02-26T10:01:53;3.17;;;1.50;;
39102;SDS011;24847;48.218;16.414;2024-02-26T10:06:55;2.33;;;1.60;;
39102;SDS011;24847;48.218;16.414;2024-02-26T10:12:01;2.42;;;1.65;;
39102;SDS011;24847;48.218;16.414;2024-02-26T10:17:05;2.20;;;1.50;;
39102;SDS011;24847;48.218;16.414;2024-02-26T10:22:09;3.17;;;1.80;;
39102;SDS011;24847;48.218;16.414;2024-02-26T10:27:13;1.77;;;1.20;;
39102;SDS011;24847;48.218;16.414;2024-02-26T10:32:16;1.77;;;1.17;;
39102;SDS011;24847;48.218;16.414;2024-02-26T10:37:19;2.35;;;1.45;;
39102;SDS011;24847;48.218;16.414;2024-02-26T10:42:23;1.90;;;1.35;;
39102;SDS011;24847;48.218;16.414;2024-02-26T10:47:27;1.45;;;1.20;;
39102;SDS011;24847;48.218;16.414;2024-02-26T10:52:31;1.90;;;1.27;;
39102;SDS011;24847;48.218;16.414;2024-02-26T10:57:37;2.35;;;1.45;;
39102;SDS011;24847;48.218;16.414;2024-02-26T11:02:43;2.55;;;1.38;;
39102;SDS011;24847;48.218;16.414;2024-02-26T11:07:47;2.72;;;1.70;;
39102;SDS011;24847;48.218;16.414;2024-02-26T11:12:53;2.60;;;1.77;;
39102;SDS011;24847;48.218;16.414;2024-02-26T11:17:57;3.38;;;1.80;;
39102;SDS011;24847;48.218;16.414;2024-02-26T11:23:00;3.05;;;1.80;;
39102;SDS011;24847;48.218;16.414;2024-02-26T11:28:04;2.28;;;1.30;;
39102;SDS011;24847;48.218;16.414;2024-02-26T11:33:10;2.63;;;1.00;;
39102;SDS011;24847;48.218;16.414;2024-02-26T11:38:17;2.10;;;1.13;;
39102;SDS011;24847;48.218;16.414;2024-02-26T11:43:24;1.85;;;1.25;;
39102;SDS011;24847;48.218;16.414;2024-02-26T11:49:01;4.55;;;1.10;;
39102;SDS011;24847;48.218;16.414;2024-02-26T11:54:05;1.50;;;0.90;;
39102;SDS011;24847;48.218;16.414;2024-02-26T11:59:10;1.83;;;1.20;;
39102;SDS011;24847;48.218;16.414;2024-02-26T12:04:14;1.83;;;0.80;;
39102;SDS011;24847;48.218;16.414;2024-02-26T12:09:35;2.42;;;0.80;;
39102;SDS011;24847;48.218;16.414;2024-02-26T12:14:40;1.02;;;0.57;;
39102;SDS011;24847;48.218;16.414;2024-02-26T12:19:52;1.67;;;0.73;;
39102;SDS011;24847;48.218;16.414;2024-02-26T12:24:59;2.65;;;0.75;;
39102;SDS011;24847;48.218;16.414;2024-02-26T12:30:05;1.10;;;0.70;;
39102;SDS011;24847;48.218;16.414;2024-02-26T12:35:08;1.98;;;0.70;;
39102;SDS011;24847;48.218;16.414;2024-02-26T12:40:11;1.27;;;0.55;;
39102;SDS011;24847;48.218;16.414;2024-02-26T12:45:14;4.18;;;2.03;;
39102;SDS011;24847;48.218;16.414;2024-02-26T12:50:17;2.42;;;1.40;;
39102;SDS011;24847;48.218;16.414;2024-02-26T12:55:19;2.33;;;1.38;;
39102;SDS011;24847;48.218;16.414;2024-02-26T13:00:25;3.30;;;0.80;;
39102;SDS011;24847;48.218;16.414;2024-02-26T13:05:28;1.95;;;0.70;;
39102;SDS011;24847;48.218;16.414;2024-02-26T13:10:31;1.30;;;0.65;;
39102;SDS011;24847;48.218;16.414;2024-02-26T13:15:36;2.28;;;0.60;;
39102;SDS011;24847;48.218;16.414;2024-02-26T13:20:38;0.98;;;0.50;;
39102;SDS011;24847;48.218;16.414;2024-02-26T13:25:41;1.15;;;0.60;;
39102;SDS011;24847;48.218;16.414;2024-02-26T13:30:51;1.42;;;0.75;;
39102;SDS011;24847;48.218;16.414;2024-02-26T13:35:54;1.38;;;0.63;;
39102;SDS011;24847;48.218;16.414;2024-02-26T13:40:56;1.45;;;0.50;;
39102;SDS011;24847;48.218;16.414;2024-02-26T13:46:00;1.35;;;0.47;;
39102;SDS011;24847;48.218;16.414;2024-02-26T13:51:03;0.90;;;0.60;;
39102;SDS011;24847;48.218;16.414;2024-02-26T13:56:06;1.02;;;0.60;;
39102;SDS011;24847;48.218;16.414;2024-02-26T14:01:09;1.95;;;0.50;;
39102;SDS011;24847;48.218;16.414;2024-02-26T14:06:12;1.05;;;0.50;;
39102;SDS011;24847;48.218;16.414;2024-02-26T14:11:14;2.03;;;0.60;;
39102;SDS011;24847;48.218;16.414;2024-02-26T14:16:18;2.67;;;0.60;;
39102;SDS011;24847;48.218;16.414;2024-02-26T14:21:20;0.80;;;0.50;;
39102;SDS011;24847;48.218;16.414;2024-02-26T14:26:22;0.70;;;0.40;;
39102;SDS011;24847;48.218;16.414;2024-02-26T14:31:26;1.02;;;0.40;;
39102;SDS011;24847;48.218;16.414;2024-02-26T14:36:28;0.93;;;0.47;;
39102;SDS011;24847;48.218;16.414;2024-02-26T14:41:31;1.38;;;0.45;;
39102;SDS011;24847;48.218;16.414;2024-02-26T14:46:35;0.50;;;0.28;;
39102;SDS011;24847;48.218;16.414;2024-02-26T14:51:38;1.17;;;0.40;;
39102;SDS011;24847;48.218;16.414;2024-02-26T14:56:40;0.50;;;0.40;;
39102;SDS011;24847;48.218;16.414;2024-02-26T15:01:44;1.10;;;0.43;;
39102;SDS011;24847;48.218;16.414;2024-02-26T15:06:46;0.90;;;0.60;;
39102;SDS011;24847;48.218;16.414;2024-02-26T15:11:48;1.35;;;0.57;;
39102;SDS011;24847;48.218;16.414;2024-02-26T15:16:52;1.10;;;0.80;;
39102;SDS011;24847;48.218;16.414;2024-02-26T15:21:54;1.10;;;0.55;;
39102;SDS011;24847;48.218;16.414;2024-02-26T15:26:56;0.73;;;0.50;;
39102;SDS011;24847;48.218;16.414;2024-02-26T15:32:00;0.98;;;0.60;;
39102;SDS011;24847;48.218;16.414;2024-02-26T15:37:03;1.23;;;0.55;;
39102;SDS011;24847;48.218;16.414;2024-02-26T15:42:05;1.73;;;0.50;;
39102;SDS011;24847;48.218;16.414;2024-02-26T15:47:09;0.77;;;0.47;;
39102;SDS011;24847;48.218;16.414;2024-02-26T15:52:11;2.50;;;0.80;;
39102;SDS011;24847;48.218;16.414;2024-02-26T15:57:13;1.40;;;0.70;;
39102;SDS011;24847;48.218;16.414;2024-02-26T16:02:18;1.27;;;0.55;;
39102;SDS011;24847;48.218;16.414;2024-02-26T16:07:23;1.30;;;0.50;;
39102;SDS011;24847;48.218;16.414;2024-02-26T16:12:35;1.80;;;0.57;;
39102;SDS011;24847;48.218;16.414;2024-02-26T16:17:43;1.13;;;0.70;;
39102;SDS011;24847;48.218;16.414;2024-02-26T16:22:48;1.00;;;0.40;;
39102;SDS011;24847;48.218;16.414;2024-02-26T16:27:50;2.40;;;0.90;;
39102;SDS011;24847;48.218;16.414;2024-02-26T16:32:54;1.60;;;0.80;;
39102;SDS011;24847;48.218;16.414;2024-02-26T16:37:56;1.52;;;0.50;;
39102;SDS011;24847;48.218;16.414;2024-02-26T16:42:58;0.90;;;0.80;;
39102;SDS011;24847;48.218;16.414;2024-02-26T16:48:02;1.08;;;0.80;;
39102;SDS011;24847;48.218;16.414;2024-02-26T16:53:05;1.77;;;0.80;;
39102;SDS011;24847;48.218;16.414;2024-02-26T16:58:08;2.92;;;1.50;;
39102;SDS011;24847;48.218;16.414;2024-02-26T17:03:11;6.05;;;4.38;;
39102;SDS011;24847;48.218;16.414;2024-02-26T17:08:15;3.20;;;2.40;;
39102;SDS011;24847;48.218;16.414;2024-02-26T17:13:17;1.60;;;1.10;;
39102;SDS011;24847;48.218;16.414;2024-02-26T17:18:23;1.27;;;1.10;;
39102;SDS011;24847;48.218;16.414;2024-02-26T17:23:26;1.60;;;1.05;;
39102;SDS011;24847;48.218;16.414;2024-02-26T17:28:32;1.70;;;0.90;;
39102;SDS011;24847;48.218;16.414;2024-02-26T17:33:37;2.20;;;0.95;;
39102;SDS011;24847;48.218;16.414;2024-02-26T17:38:39;1.30;;;0.85;;
39102;SDS011;24847;48.218;16.414;2024-02-26T17:43:41;1.38;;;0.93;;
39102;SDS011;24847;48.218;16.414;2024-02-26T17:48:45;0.98;;;0.88;;
39102;SDS011;24847;48.218;16.414;2024-02-26T17:53:47;1.30;;;0.88;;
39102;SDS011;24847;48.218;16.414;2024-02-26T17:58:49;1.35;;;1.00;;
39102;SDS011;24847;48.218;16.414;2024-02-26T18:03:53;1.30;;;1.02;;
39102;SDS011;24847;48.218;16.414;2024-02-26T18:08:56;1.75;;;1.00;;
39102;SDS011;24847;48.218;16.414;2024-02-26T18:13:59;1.00;;;0.80;;
39102;SDS011;24847;48.218;16.414;2024-02-26T18:19:03;0.95;;;0.80;;
39102;SDS011;24847;48.218;16.414;2024-02-26T18:24:06;1.33;;;1.13;;
39102;SDS011;24847;48.218;16.414;2024-02-26T18:29:10;1.77;;;0.80;;
39102;SDS011;24847;48.218;16.414;2024-02-26T18:34:15;1.08;;;0.90;;
39102;SDS011;24847;48.218;16.414;2024-02-26T18:39:18;1.27;;;1.00;;
39102;SDS011;24847;48.218;16.414;2024-02-26T18:44:23;1.15;;;1.02;;
39102;SDS011;24847;48.218;16.414;2024-02-26T18:49:29;1.30;;;0.90;;
39102;SDS011;24847;48.218;16.414;2024-02-26T18:54:36;1.50;;;1.00;;
39102;SDS011;24847;48.218;16.414;2024-02-26T18:59:41;1.27;;;0.85;;
39102;SDS011;24847;48.218;16.414;2024-02-26T19:04:48;1.25;;;0.80;;
39102;SDS011;24847;48.218;16.414;2024-02-26T19:09:52;2.38;;;1.00;;
39102;SDS011;24847;48.218;16.414;2024-02-26T19:14:57;1.52;;;0.65;;
39102;SDS011;24847;48.218;16.414;2024-02-26T19:20:04;1.27;;;0.90;;
39102;SDS011;24847;48.218;16.414;2024-02-26T19:25:11;1.10;;;0.70;;
39102;SDS011;24847;48.218;16.414;2024-02-26T19:30:17;1.60;;;0.90;;
39102;SDS011;24847;48.218;16.414;2024-02-26T19:35:23;1.00;;;0.77;;
39102;SDS011;24847;48.218;16.414;2024-02-26T19:40:28;1.35;;;0.90;;
39102;SDS011;24847;48.218;16.414;2024-02-26T19:45:33;0.90;;;0.70;;
39102;SDS011;24847;48.218;16.414;2024-02-26T19:50:41;2.25;;;0.85;;
39102;SDS011;24847;48.218;16.414;2024-02-26T19:56:00;1.40;;;1.08;;
39102;SDS011;24847;48.218;16.414;2024-02-26T20:01:07;1.73;;;0.95;;
39102;SDS011;24847;48.218;16.414;2024-02-26T20:06:17;1.30;;;0.98;;
39102;SDS011;24847;48.218;16.414;2024-02-26T20:11:25;1.77;;;1.00;;
39102;SDS011;24847;48.218;16.414;2024-02-26T20:16:31;1.20;;;0.75;;
39102;SDS011;24847;48.218;16.414;2024-02-26T20:21:37;1.50;;;1.00;;
39102;SDS011;24847;48.218;16.414;2024-02-26T20:26:45;1.83;;;1.00;;
39102;SDS011;24847;48.218;16.414;2024-02-26T20:31:50;1.48;;;0.93;;
39102;SDS011;24847;48.218;16.414;2024-02-26T20:36:56;1.00;;;0.80;;
39102;SDS011;24847;48.218;16.414;2024-02-26T20:42:01;1.20;;;1.00;;
39102;SDS011;24847;48.218;16.414;2024-02-26T20:47:06;2.28;;;1.55;;
39102;SDS011;24847;48.218;16.414;2024-02-26T20:52:14;1.90;;;1.00;;
39102;SDS011;24847;48.218;16.414;2024-02-26T20:57:18;1.33;;;1.00;;
39102;SDS011;24847;48.218;16.414;2024-02-26T21:02:22;1.25;;;0.93;;
39102;SDS011;24847;48.218;16.414;2024-02-26T21:07:28;1.17;;;0.70;;
39102;SDS011;24847;48.218;16.414;2024-02-26T21:12:32;1.00;;;0.77;;
39102;SDS011;24847;48.218;16.414;2024-02-26T21:17:35;1.70;;;0.90;;
39102;SDS011;24847;48.218;16.414;2024-02-26T21:22:39;3.00;;;1.10;;
39102;SDS011;24847;48.218;16.414;2024-02-26T21:27:44;2.08;;;1.50;;
39102;SDS011;24847;48.218;16.414;2024-02-26T21:32:46;1.40;;;1.00;;
39102;SDS011;24847;48.218;16.414;2024-02-26T21:37:49;2.80;;;1.27;;
39102;SDS011;24847;48.218;16.414;2024-02-26T21:42:52;1.92;;;1.05;;
39102;SDS011;24847;48.218;16.414;2024-02-26T21:47:54;1.17;;;0.90;;
39102;SDS011;24847;48.218;16.414;2024-02-26T21:52:57;1.70;;;0.98;;
39102;SDS011;24847;48.218;16.414;2024-02-26T21:57:59;1.60;;;0.88;;
39102;SDS011;24847;48.218;16.414;2024-02-26T22:03:02;1.63;;;0.93;;
39102;SDS011;24847;48.218;16.414;2024-02-26T22:08:06;1.73;;;1.10;;
39102;SDS011;24847;48.218;16.414;2024-02-26T22:13:09;1.15;;;0.88;;
39102;SDS011;24847;48.218;16.414;2024-02-26T22:18:11;1.02;;;0.93;;
39102;SDS011;24847;48.218;16.414;2024-02-26T22:23:15;1.33;;;1.10;;
39102;SDS011;24847;48.218;16.414;2024-02-26T22:28:17;3.08;;;1.30;;
39102;SDS011;24847;48.218;16.414;2024-02-26T22:33:19;1.88;;;0.93;;
39102;SDS011;24847;48.218;16.414;2024-02-26T22:38:23;1.35;;;0.80;;
39102;SDS011;24847;48.218;16.414;2024-02-26T22:43:25;1.95;;;0.88;;
39102;SDS011;24847;48.218;16.414;2024-02-26T22:48:27;1.30;;;0.90;;
39102;SDS011;24847;48.218;16.414;2024-02-26T22:53:31;1.45;;;0.90;;
39102;SDS011;24847;48.218;16.414;2024-02-26T22:58:34;1.10;;;0.65;;
39102;SDS011;24847;48.218;16.414;2024-02-26T23:03:36;1.67;;;1.00;;
39102;SDS011;24847;48.218;16.414;2024-02-26T23:08:40;1.35;;;1.08;;
39102;SDS011;24847;48.218;16.414;2024-02-26T23:13:42;1.27;;;0.90;;
39102;SDS011;24847;48.218;16.414;2024-02-26T23:18:46;2.63;;;0.73;;
39102;SDS011;24847;48.218;16.414;2024-02-26T23:23:49;1.45;;;0.80;;
39102;SDS011;24847;48.218;16.414;2024-02-26T23:28:52;0.88;;;0.75;;
39102;SDS011;24847;48.218;16.414;2024-02-26T23:33:54;1.27;;;0.77;;
39102;SDS011;24847;48.218;16.414;2024-02-26T23:38:59;1.52;;;0.70;;
39102;SDS011;24847;48.218;16.414;2024-02-26T23:44:02;1.80;;;0.90;;
39102;SDS011;24847;48.218;16.414;2024-02-26T23:49:04;1.33;;;0.88;;
39102;SDS011;24847;48.218;16.414;2024-02-26T23:54:08;1.55;;;1.05;;
39102;SDS011;24847;48.218;16.414;2024-02-26T23:59:10;1.00;;;0.80;;
